sensor_id;sensor_type;location;lat;lon;timestamp;P1;durP1;ratioP1;P2;durP2;ratioP2
15968;SDS011;8085;53.472;9.794;2022-09-03T00:02:20;3.20;;;0.80;;
15968;SDS011;8085;53.472;9.794;2022-09-03T00:04:54;0.60;;;0.43;;
15968;SDS011;8085;53.472;9.794;2022-09-03T00:07:27;0.60;;;0.50;;
15968;SDS011;8085;53.472;9.794;2022-09-03T00:10:01;1.10;;;0.60;;
15968;SDS011;8085;53.472;9.794;2022-09-03T00:12:32;0.57;;;0.50;;
15968;SDS011;8085;53.472;9.794;2022-09-03T00:15:04;0.50;;;0.50;;
15968;SDS011;8085;53.472;9.794;2022-09-03T00:17:35;0.90;;;0.60;;
15968;SDS011;8085;53.472;9.794;2022-09-03T00:20:06;0.47;;;0.47;;
15968;SDS011;8085;53.472;9.794;2022-09-03T00:22:38;3.20;;;0.60;;
15968;SDS011;8085;53.472;9.794;2022-09-03T00:25:09;1.43;;;0.60;;
15968;SDS011;8085;53.472;9.794;2022-09-03T00:27:40;0.90;;;0.50;;
15968;SDS011;8085;53.472;9.794;2022-09-03T00:30:10;1.33;;;0.60;;
15968;SDS011;8085;53.472;9.794;2022-09-03T00:32:41;1.13;;;0.60;;
15968;SDS011;8085;53.472;9.794;2022-09-03T00:35:13;0.50;;;0.50;;
15968;SDS011;8085;53.472;9.794;2022-09-03T00:37:45;0.77;;;0.50;;
15968;SDS011;8085;53.472;9.794;2022-09-03T00:40:15;0.67;;;0.53;;
15968;SDS011;8085;53.472;9.794;2022-09-03T00:42:57;0.73;;;0.50;;
15968;SDS011;8085;53.472;9.794;2022-09-03T00:45:32;1.37;;;0.70;;
15968;SDS011;8085;53.472;9.794;2022-09-03T00:48:10;0.80;;;0.60;;
15968;SDS011;8085;53.472;9.794;2022-09-03T00:50:46;0.80;;;0.50;;
15968;SDS011;8085;53.472;9.794;2022-09-03T00:53:26;0.77;;;0.50;;
15968;SDS011;8085;53.472;9.794;2022-09-03T00:56:00;0.93;;;0.43;;
15968;SDS011;8085;53.472;9.794;2022-09-03T00:58:43;1.47;;;0.90;;
15968;SDS011;8085;53.472;9.794;2022-09-03T01:01:21;0.87;;;0.50;;
15968;SDS011;8085;53.472;9.794;2022-09-03T01:03:58;0.83;;;0.60;;
15968;SDS011;8085;53.472;9.794;2022-09-03T01:06:32;1.63;;;0.70;;
15968;SDS011;8085;53.472;9.794;2022-09-03T01:09:13;3.27;;;0.70;;
15968;SDS011;8085;53.472;9.794;2022-09-03T01:11:50;3.00;;;0.93;;
15968;SDS011;8085;53.472;9.794;2022-09-03T01:14:27;0.77;;;0.60;;
15968;SDS011;8085;53.472;9.794;2022-09-03T01:17:00;0.70;;;0.50;;
15968;SDS011;8085;53.472;9.794;2022-09-03T01:19:44;1.40;;;0.60;;
15968;SDS011;8085;53.472;9.794;2022-09-03T01:22:42;1.20;;;0.70;;
15968;SDS011;8085;53.472;9.794;2022-09-03T01:25:35;0.90;;;0.60;;
15968;SDS011;8085;53.472;9.794;2022-09-03T01:28:16;0.70;;;0.50;;
15968;SDS011;8085;53.472;9.794;2022-09-03T01:30:49;1.17;;;0.77;;
15968;SDS011;8085;53.472;9.794;2022-09-03T01:33:23;0.43;;;0.40;;
15968;SDS011;8085;53.472;9.794;2022-09-03T01:35:56;1.47;;;0.60;;
15968;SDS011;8085;53.472;9.794;2022-09-03T01:38:30;0.97;;;0.50;;
15968;SDS011;8085;53.472;9.794;2022-09-03T01:41:04;1.47;;;0.60;;
15968;SDS011;8085;53.472;9.794;2022-09-03T01:43:59;1.83;;;0.70;;
15968;SDS011;8085;53.472;9.794;2022-09-03T01:46:32;0.67;;;0.50;;
15968;SDS011;8085;53.472;9.794;2022-09-03T01:49:05;1.10;;;0.63;;
15968;SDS011;8085;53.472;9.794;2022-09-03T01:51:47;3.13;;;0.90;;
15968;SDS011;8085;53.472;9.794;2022-09-03T01:54:37;4.07;;;0.70;;
15968;SDS011;8085;53.472;9.794;2022-09-03T01:57:38;1.00;;;0.60;;
15968;SDS011;8085;53.472;9.794;2022-09-03T02:00:13;2.13;;;0.77;;
15968;SDS011;8085;53.472;9.794;2022-09-03T02:02:42;1.10;;;0.70;;
15968;SDS011;8085;53.472;9.794;2022-09-03T02:05:12;1.13;;;0.60;;
15968;SDS011;8085;53.472;9.794;2022-09-03T02:07:42;1.27;;;0.60;;
15968;SDS011;8085;53.472;9.794;2022-09-03T02:10:11;0.83;;;0.50;;
15968;SDS011;8085;53.472;9.794;2022-09-03T02:12:40;1.90;;;0.70;;
15968;SDS011;8085;53.472;9.794;2022-09-03T02:15:13;3.53;;;0.60;;
15968;SDS011;8085;53.472;9.794;2022-09-03T02:17:42;1.03;;;0.73;;
15968;SDS011;8085;53.472;9.794;2022-09-03T02:20:14;1.77;;;0.60;;
15968;SDS011;8085;53.472;9.794;2022-09-03T02:22:45;1.17;;;0.57;;
15968;SDS011;8085;53.472;9.794;2022-09-03T02:25:13;1.47;;;0.80;;
15968;SDS011;8085;53.472;9.794;2022-09-03T02:27:40;0.80;;;0.60;;
15968;SDS011;8085;53.472;9.794;2022-09-03T02:30:07;0.80;;;0.67;;
15968;SDS011;8085;53.472;9.794;2022-09-03T02:32:36;2.87;;;0.70;;
15968;SDS011;8085;53.472;9.794;2022-09-03T02:35:03;3.17;;;0.73;;
15968;SDS011;8085;53.472;9.794;2022-09-03T02:37:31;1.93;;;0.47;;
15968;SDS011;8085;53.472;9.794;2022-09-03T02:39:59;4.07;;;0.97;;
15968;SDS011;8085;53.472;9.794;2022-09-03T02:42:26;0.80;;;0.50;;
15968;SDS011;8085;53.472;9.794;2022-09-03T02:44:54;3.23;;;0.80;;
15968;SDS011;8085;53.472;9.794;2022-09-03T02:47:29;1.40;;;0.70;;
15968;SDS011;8085;53.472;9.794;2022-09-03T02:50:00;1.70;;;0.60;;
15968;SDS011;8085;53.472;9.794;2022-09-03T02:52:26;2.90;;;0.80;;
15968;SDS011;8085;53.472;9.794;2022-09-03T02:54:53;4.17;;;0.80;;
15968;SDS011;8085;53.472;9.794;2022-09-03T02:57:20;3.40;;;0.60;;
15968;SDS011;8085;53.472;9.794;2022-09-03T02:59:47;1.27;;;0.70;;
15968;SDS011;8085;53.472;9.794;2022-09-03T03:02:13;1.43;;;0.80;;
15968;SDS011;8085;53.472;9.794;2022-09-03T03:04:40;1.43;;;0.73;;
15968;SDS011;8085;53.472;9.794;2022-09-03T03:07:09;3.07;;;0.70;;
15968;SDS011;8085;53.472;9.794;2022-09-03T03:09:35;3.73;;;0.80;;
15968;SDS011;8085;53.472;9.794;2022-09-03T03:12:02;1.27;;;0.67;;
15968;SDS011;8085;53.472;9.794;2022-09-03T03:14:29;0.67;;;0.50;;
15968;SDS011;8085;53.472;9.794;2022-09-03T03:16:56;1.40;;;0.80;;
15968;SDS011;8085;53.472;9.794;2022-09-03T03:19:23;4.20;;;0.80;;
15968;SDS011;8085;53.472;9.794;2022-09-03T03:21:50;2.97;;;0.90;;
15968;SDS011;8085;53.472;9.794;2022-09-03T03:24:18;2.70;;;0.60;;
15968;SDS011;8085;53.472;9.794;2022-09-03T03:26:45;1.27;;;0.70;;
15968;SDS011;8085;53.472;9.794;2022-09-03T03:29:13;1.33;;;0.70;;
15968;SDS011;8085;53.472;9.794;2022-09-03T03:31:41;0.80;;;0.70;;
15968;SDS011;8085;53.472;9.794;2022-09-03T03:34:09;0.80;;;0.67;;
15968;SDS011;8085;53.472;9.794;2022-09-03T03:36:36;2.20;;;0.70;;
15968;SDS011;8085;53.472;9.794;2022-09-03T03:39:03;0.67;;;0.47;;
15968;SDS011;8085;53.472;9.794;2022-09-03T03:41:32;1.00;;;0.70;;
15968;SDS011;8085;53.472;9.794;2022-09-03T03:44:00;3.93;;;0.90;;
15968;SDS011;8085;53.472;9.794;2022-09-03T03:46:30;2.03;;;0.80;;
15968;SDS011;8085;53.472;9.794;2022-09-03T03:48:58;0.77;;;0.60;;
15968;SDS011;8085;53.472;9.794;2022-09-03T03:51:25;1.10;;;0.73;;
15968;SDS011;8085;53.472;9.794;2022-09-03T03:53:52;1.97;;;0.80;;
15968;SDS011;8085;53.472;9.794;2022-09-03T03:56:21;0.87;;;0.63;;
15968;SDS011;8085;53.472;9.794;2022-09-03T03:58:50;0.67;;;0.63;;
15968;SDS011;8085;53.472;9.794;2022-09-03T04:01:18;2.30;;;0.80;;
15968;SDS011;8085;53.472;9.794;2022-09-03T04:03:45;0.83;;;0.57;;
15968;SDS011;8085;53.472;9.794;2022-09-03T04:06:14;1.83;;;0.60;;
15968;SDS011;8085;53.472;9.794;2022-09-03T04:08:42;0.63;;;0.60;;
15968;SDS011;8085;53.472;9.794;2022-09-03T04:11:11;1.00;;;0.70;;
15968;SDS011;8085;53.472;9.794;2022-09-03T04:13:40;1.43;;;1.00;;
15968;SDS011;8085;53.472;9.794;2022-09-03T04:16:10;1.23;;;0.67;;
15968;SDS011;8085;53.472;9.794;2022-09-03T04:18:38;1.60;;;0.73;;
15968;SDS011;8085;53.472;9.794;2022-09-03T04:21:06;0.47;;;0.47;;
15968;SDS011;8085;53.472;9.794;2022-09-03T04:23:36;1.47;;;0.60;;
15968;SDS011;8085;53.472;9.794;2022-09-03T04:26:04;0.97;;;0.60;;
15968;SDS011;8085;53.472;9.794;2022-09-03T04:28:33;1.10;;;0.60;;
15968;SDS011;8085;53.472;9.794;2022-09-03T04:31:00;0.60;;;0.50;;
15968;SDS011;8085;53.472;9.794;2022-09-03T04:33:29;3.90;;;0.80;;
15968;SDS011;8085;53.472;9.794;2022-09-03T04:36:01;2.43;;;0.70;;
15968;SDS011;8085;53.472;9.794;2022-09-03T04:38:30;1.23;;;0.70;;
15968;SDS011;8085;53.472;9.794;2022-09-03T04:40:57;1.40;;;0.80;;
15968;SDS011;8085;53.472;9.794;2022-09-03T04:43:24;1.63;;;0.50;;
15968;SDS011;8085;53.472;9.794;2022-09-03T04:45:54;4.37;;;0.70;;
15968;SDS011;8085;53.472;9.794;2022-09-03T04:48:22;4.10;;;0.80;;
15968;SDS011;8085;53.472;9.794;2022-09-03T04:50:51;0.97;;;0.60;;
15968;SDS011;8085;53.472;9.794;2022-09-03T04:53:19;1.30;;;0.70;;
15968;SDS011;8085;53.472;9.794;2022-09-03T04:55:46;2.00;;;0.70;;
15968;SDS011;8085;53.472;9.794;2022-09-03T04:58:13;1.13;;;0.70;;
15968;SDS011;8085;53.472;9.794;2022-09-03T05:00:40;0.80;;;0.53;;
15968;SDS011;8085;53.472;9.794;2022-09-03T05:03:07;0.80;;;0.60;;
15968;SDS011;8085;53.472;9.794;2022-09-03T05:05:34;0.70;;;0.60;;
15968;SDS011;8085;53.472;9.794;2022-09-03T05:08:02;1.83;;;0.70;;
15968;SDS011;8085;53.472;9.794;2022-09-03T05:10:30;1.00;;;0.60;;
15968;SDS011;8085;53.472;9.794;2022-09-03T05:12:57;1.50;;;0.80;;
15968;SDS011;8085;53.472;9.794;2022-09-03T05:15:25;0.57;;;0.50;;
15968;SDS011;8085;53.472;9.794;2022-09-03T05:17:54;2.60;;;0.70;;
15968;SDS011;8085;53.472;9.794;2022-09-03T05:20:22;1.13;;;0.70;;
15968;SDS011;8085;53.472;9.794;2022-09-03T05:22:49;1.43;;;0.70;;
15968;SDS011;8085;53.472;9.794;2022-09-03T05:25:18;1.47;;;0.60;;
15968;SDS011;8085;53.472;9.794;2022-09-03T05:27:45;1.37;;;0.70;;
15968;SDS011;8085;53.472;9.794;2022-09-03T05:30:12;0.67;;;0.50;;
15968;SDS011;8085;53.472;9.794;2022-09-03T05:32:39;1.00;;;0.60;;
15968;SDS011;8085;53.472;9.794;2022-09-03T05:35:07;2.63;;;0.80;;
15968;SDS011;8085;53.472;9.794;2022-09-03T05:37:35;1.97;;;0.70;;
15968;SDS011;8085;53.472;9.794;2022-09-03T05:40:02;4.60;;;0.77;;
15968;SDS011;8085;53.472;9.794;2022-09-03T05:42:31;1.30;;;0.80;;
15968;SDS011;8085;53.472;9.794;2022-09-03T05:45:04;4.37;;;1.03;;
15968;SDS011;8085;53.472;9.794;2022-09-03T05:47:35;3.10;;;0.80;;
15968;SDS011;8085;53.472;9.794;2022-09-03T05:50:04;1.23;;;0.60;;
15968;SDS011;8085;53.472;9.794;2022-09-03T05:52:32;1.47;;;0.77;;
15968;SDS011;8085;53.472;9.794;2022-09-03T05:54:59;1.70;;;0.80;;
15968;SDS011;8085;53.472;9.794;2022-09-03T05:57:27;1.27;;;0.77;;
15968;SDS011;8085;53.472;9.794;2022-09-03T05:59:56;2.10;;;0.70;;
15968;SDS011;8085;53.472;9.794;2022-09-03T06:02:24;0.77;;;0.60;;
15968;SDS011;8085;53.472;9.794;2022-09-03T06:04:51;3.87;;;0.80;;
15968;SDS011;8085;53.472;9.794;2022-09-03T06:07:19;2.47;;;0.80;;
15968;SDS011;8085;53.472;9.794;2022-09-03T06:09:46;1.33;;;0.70;;
15968;SDS011;8085;53.472;9.794;2022-09-03T06:12:13;1.93;;;0.73;;
15968;SDS011;8085;53.472;9.794;2022-09-03T06:14:39;5.70;;;1.03;;
15968;SDS011;8085;53.472;9.794;2022-09-03T06:17:08;3.57;;;0.80;;
15968;SDS011;8085;53.472;9.794;2022-09-03T06:19:36;1.03;;;0.63;;
15968;SDS011;8085;53.472;9.794;2022-09-03T06:22:03;0.77;;;0.40;;
15968;SDS011;8085;53.472;9.794;2022-09-03T06:24:30;1.13;;;0.70;;
15968;SDS011;8085;53.472;9.794;2022-09-03T06:26:57;1.07;;;0.73;;
15968;SDS011;8085;53.472;9.794;2022-09-03T06:29:25;1.43;;;0.60;;
15968;SDS011;8085;53.472;9.794;2022-09-03T06:31:52;0.40;;;0.40;;
15968;SDS011;8085;53.472;9.794;2022-09-03T06:34:21;3.73;;;0.60;;
15968;SDS011;8085;53.472;9.794;2022-09-03T06:36:49;1.10;;;0.63;;
15968;SDS011;8085;53.472;9.794;2022-09-03T06:39:16;0.60;;;0.50;;
15968;SDS011;8085;53.472;9.794;2022-09-03T06:41:43;2.00;;;0.50;;
15968;SDS011;8085;53.472;9.794;2022-09-03T06:44:15;0.40;;;0.30;;
15968;SDS011;8085;53.472;9.794;2022-09-03T06:46:43;1.43;;;0.60;;
15968;SDS011;8085;53.472;9.794;2022-09-03T06:49:11;1.03;;;0.60;;
15968;SDS011;8085;53.472;9.794;2022-09-03T06:51:39;1.43;;;0.60;;
15968;SDS011;8085;53.472;9.794;2022-09-03T06:54:08;1.00;;;0.60;;
15968;SDS011;8085;53.472;9.794;2022-09-03T06:56:36;0.70;;;0.40;;
15968;SDS011;8085;53.472;9.794;2022-09-03T06:59:05;1.40;;;0.60;;
15968;SDS011;8085;53.472;9.794;2022-09-03T07:01:33;0.70;;;0.60;;
15968;SDS011;8085;53.472;9.794;2022-09-03T07:04:04;3.03;;;0.57;;
15968;SDS011;8085;53.472;9.794;2022-09-03T07:06:32;3.27;;;0.73;;
15968;SDS011;8085;53.472;9.794;2022-09-03T07:09:04;5.50;;;0.90;;
15968;SDS011;8085;53.472;9.794;2022-09-03T07:11:31;4.70;;;1.00;;
15968;SDS011;8085;53.472;9.794;2022-09-03T07:14:00;1.50;;;0.70;;
15968;SDS011;8085;53.472;9.794;2022-09-03T07:16:28;2.13;;;0.73;;
15968;SDS011;8085;53.472;9.794;2022-09-03T07:18:57;1.70;;;0.63;;
15968;SDS011;8085;53.472;9.794;2022-09-03T07:21:25;1.57;;;0.70;;
15968;SDS011;8085;53.472;9.794;2022-09-03T07:23:53;1.27;;;0.80;;
15968;SDS011;8085;53.472;9.794;2022-09-03T07:26:24;1.90;;;0.63;;
15968;SDS011;8085;53.472;9.794;2022-09-03T07:28:51;1.57;;;0.90;;
15968;SDS011;8085;53.472;9.794;2022-09-03T07:31:20;2.90;;;0.83;;
15968;SDS011;8085;53.472;9.794;2022-09-03T07:33:49;1.73;;;0.60;;
15968;SDS011;8085;53.472;9.794;2022-09-03T07:36:19;2.73;;;0.60;;
15968;SDS011;8085;53.472;9.794;2022-09-03T07:38:47;1.50;;;0.70;;
15968;SDS011;8085;53.472;9.794;2022-09-03T07:41:14;2.97;;;0.67;;
15968;SDS011;8085;53.472;9.794;2022-09-03T07:43:43;2.70;;;0.90;;
15968;SDS011;8085;53.472;9.794;2022-09-03T07:46:12;2.47;;;0.70;;
15968;SDS011;8085;53.472;9.794;2022-09-03T07:48:42;1.40;;;0.60;;
15968;SDS011;8085;53.472;9.794;2022-09-03T07:51:13;2.80;;;0.90;;
15968;SDS011;8085;53.472;9.794;2022-09-03T07:53:41;2.20;;;0.60;;
15968;SDS011;8085;53.472;9.794;2022-09-03T07:56:08;1.80;;;0.67;;
15968;SDS011;8085;53.472;9.794;2022-09-03T07:58:36;1.63;;;0.67;;
15968;SDS011;8085;53.472;9.794;2022-09-03T08:01:07;2.10;;;0.70;;
15968;SDS011;8085;53.472;9.794;2022-09-03T08:03:35;2.23;;;0.70;;
15968;SDS011;8085;53.472;9.794;2022-09-03T08:06:04;1.63;;;0.80;;
15968;SDS011;8085;53.472;9.794;2022-09-03T08:08:32;1.47;;;0.60;;
15968;SDS011;8085;53.472;9.794;2022-09-03T08:11:04;0.70;;;0.50;;
15968;SDS011;8085;53.472;9.794;2022-09-03T08:13:35;2.00;;;0.70;;
15968;SDS011;8085;53.472;9.794;2022-09-03T08:16:02;2.27;;;0.60;;
15968;SDS011;8085;53.472;9.794;2022-09-03T08:18:31;1.90;;;0.73;;
15968;SDS011;8085;53.472;9.794;2022-09-03T08:21:02;3.57;;;0.83;;
15968;SDS011;8085;53.472;9.794;2022-09-03T08:23:35;2.17;;;0.63;;
15968;SDS011;8085;53.472;9.794;2022-09-03T08:26:03;2.23;;;0.77;;
15968;SDS011;8085;53.472;9.794;2022-09-03T08:28:30;1.67;;;0.70;;
15968;SDS011;8085;53.472;9.794;2022-09-03T08:30:58;1.43;;;0.77;;
15968;SDS011;8085;53.472;9.794;2022-09-03T08:33:31;2.33;;;0.80;;
15968;SDS011;8085;53.472;9.794;2022-09-03T08:36:05;1.33;;;0.50;;
15968;SDS011;8085;53.472;9.794;2022-09-03T08:38:34;3.23;;;0.80;;
15968;SDS011;8085;53.472;9.794;2022-09-03T08:41:05;0.70;;;0.60;;
15968;SDS011;8085;53.472;9.794;2022-09-03T08:43:38;1.80;;;0.70;;
15968;SDS011;8085;53.472;9.794;2022-09-03T08:46:21;1.80;;;0.80;;
15968;SDS011;8085;53.472;9.794;2022-09-03T08:48:52;1.27;;;0.40;;
15968;SDS011;8085;53.472;9.794;2022-09-03T08:51:20;0.77;;;0.50;;
15968;SDS011;8085;53.472;9.794;2022-09-03T08:53:53;0.80;;;0.60;;
15968;SDS011;8085;53.472;9.794;2022-09-03T08:56:23;0.97;;;0.60;;
15968;SDS011;8085;53.472;9.794;2022-09-03T08:58:52;0.80;;;0.50;;
15968;SDS011;8085;53.472;9.794;2022-09-03T09:01:22;0.80;;;0.50;;
15968;SDS011;8085;53.472;9.794;2022-09-03T09:04:03;1.30;;;0.70;;
15968;SDS011;8085;53.472;9.794;2022-09-03T09:06:38;0.67;;;0.43;;
15968;SDS011;8085;53.472;9.794;2022-09-03T09:09:13;0.83;;;0.40;;
15968;SDS011;8085;53.472;9.794;2022-09-03T09:11:53;0.83;;;0.43;;
15968;SDS011;8085;53.472;9.794;2022-09-03T09:14:29;0.70;;;0.50;;
15968;SDS011;8085;53.472;9.794;2022-09-03T09:17:01;1.30;;;0.60;;
15968;SDS011;8085;53.472;9.794;2022-09-03T09:19:40;0.43;;;0.40;;
15968;SDS011;8085;53.472;9.794;2022-09-03T09:22:17;0.60;;;0.60;;
15968;SDS011;8085;53.472;9.794;2022-09-03T09:24:52;0.40;;;0.40;;
15968;SDS011;8085;53.472;9.794;2022-09-03T09:27:22;1.27;;;0.40;;
15968;SDS011;8085;53.472;9.794;2022-09-03T09:29:50;1.80;;;0.50;;
15968;SDS011;8085;53.472;9.794;2022-09-03T09:32:18;0.40;;;0.40;;
15968;SDS011;8085;53.472;9.794;2022-09-03T09:34:47;2.10;;;0.40;;
15968;SDS011;8085;53.472;9.794;2022-09-03T09:37:15;0.40;;;0.40;;
15968;SDS011;8085;53.472;9.794;2022-09-03T09:39:52;5.50;;;0.50;;
15968;SDS011;8085;53.472;9.794;2022-09-03T09:42:21;1.80;;;0.30;;
15968;SDS011;8085;53.472;9.794;2022-09-03T09:44:49;1.77;;;0.50;;
15968;SDS011;8085;53.472;9.794;2022-09-03T09:47:20;0.40;;;0.40;;
15968;SDS011;8085;53.472;9.794;2022-09-03T09:49:52;2.43;;;0.70;;
15968;SDS011;8085;53.472;9.794;2022-09-03T09:52:20;1.17;;;0.60;;
15968;SDS011;8085;53.472;9.794;2022-09-03T09:54:50;0.70;;;0.50;;
15968;SDS011;8085;53.472;9.794;2022-09-03T09:57:20;1.27;;;0.40;;
15968;SDS011;8085;53.472;9.794;2022-09-03T09:59:48;0.77;;;0.40;;
15968;SDS011;8085;53.472;9.794;2022-09-03T10:02:18;0.83;;;0.57;;
15968;SDS011;8085;53.472;9.794;2022-09-03T10:04:53;0.73;;;0.50;;
15968;SDS011;8085;53.472;9.794;2022-09-03T10:07:25;0.97;;;0.40;;
15968;SDS011;8085;53.472;9.794;2022-09-03T10:09:56;1.27;;;0.50;;
15968;SDS011;8085;53.472;9.794;2022-09-03T10:12:27;1.13;;;0.40;;
15968;SDS011;8085;53.472;9.794;2022-09-03T10:15:00;0.47;;;0.47;;
15968;SDS011;8085;53.472;9.794;2022-09-03T10:17:46;0.63;;;0.43;;
15968;SDS011;8085;53.472;9.794;2022-09-03T10:20:23;0.47;;;0.40;;
15968;SDS011;8085;53.472;9.794;2022-09-03T10:22:59;1.77;;;0.60;;
15968;SDS011;8085;53.472;9.794;2022-09-03T10:25:34;0.33;;;0.33;;
15968;SDS011;8085;53.472;9.794;2022-09-03T10:28:07;0.93;;;0.50;;
15968;SDS011;8085;53.472;9.794;2022-09-03T10:30:39;0.57;;;0.40;;
15968;SDS011;8085;53.472;9.794;2022-09-03T10:33:21;1.13;;;0.33;;
15968;SDS011;8085;53.472;9.794;2022-09-03T10:35:55;1.10;;;0.50;;
15968;SDS011;8085;53.472;9.794;2022-09-03T10:38:31;0.83;;;0.50;;
15968;SDS011;8085;53.472;9.794;2022-09-03T10:41:03;0.70;;;0.60;;
15968;SDS011;8085;53.472;9.794;2022-09-03T10:43:48;0.93;;;0.40;;
15968;SDS011;8085;53.472;9.794;2022-09-03T10:46:32;0.97;;;0.43;;
15968;SDS011;8085;53.472;9.794;2022-09-03T10:52:00;0.40;;;0.40;;
15968;SDS011;8085;53.472;9.794;2022-09-03T10:54:36;0.87;;;0.40;;
15968;SDS011;8085;53.472;9.794;2022-09-03T10:57:11;0.40;;;0.40;;
15968;SDS011;8085;53.472;9.794;2022-09-03T10:59:49;0.77;;;0.40;;
15968;SDS011;8085;53.472;9.794;2022-09-03T11:05:29;1.07;;;0.40;;
15968;SDS011;8085;53.472;9.794;2022-09-03T11:08:04;0.40;;;0.30;;
15968;SDS011;8085;53.472;9.794;2022-09-03T11:10:36;0.73;;;0.50;;
15968;SDS011;8085;53.472;9.794;2022-09-03T11:13:08;0.30;;;0.30;;
15968;SDS011;8085;53.472;9.794;2022-09-03T11:15:40;0.50;;;0.43;;
15968;SDS011;8085;53.472;9.794;2022-09-03T11:18:14;1.67;;;0.60;;
15968;SDS011;8085;53.472;9.794;2022-09-03T11:20:45;0.70;;;0.40;;
15968;SDS011;8085;53.472;9.794;2022-09-03T11:23:16;0.47;;;0.40;;
15968;SDS011;8085;53.472;9.794;2022-09-03T11:25:46;0.60;;;0.37;;
15968;SDS011;8085;53.472;9.794;2022-09-03T11:28:19;0.93;;;0.40;;
15968;SDS011;8085;53.472;9.794;2022-09-03T11:31:00;0.50;;;0.40;;
15968;SDS011;8085;53.472;9.794;2022-09-03T11:33:39;0.67;;;0.40;;
15968;SDS011;8085;53.472;9.794;2022-09-03T11:36:10;0.67;;;0.50;;
15968;SDS011;8085;53.472;9.794;2022-09-03T11:38:39;0.50;;;0.50;;
15968;SDS011;8085;53.472;9.794;2022-09-03T11:41:11;0.90;;;0.50;;
15968;SDS011;8085;53.472;9.794;2022-09-03T11:43:39;0.70;;;0.43;;
15968;SDS011;8085;53.472;9.794;2022-09-03T11:46:08;0.33;;;0.30;;
15968;SDS011;8085;53.472;9.794;2022-09-03T11:48:39;0.40;;;0.40;;
15968;SDS011;8085;53.472;9.794;2022-09-03T11:51:17;0.53;;;0.37;;
15968;SDS011;8085;53.472;9.794;2022-09-03T11:53:58;0.30;;;0.30;;
15968;SDS011;8085;53.472;9.794;2022-09-03T11:56:26;0.33;;;0.30;;
15968;SDS011;8085;53.472;9.794;2022-09-03T11:59:02;0.40;;;0.40;;
15968;SDS011;8085;53.472;9.794;2022-09-03T12:01:42;0.60;;;0.60;;
15968;SDS011;8085;53.472;9.794;2022-09-03T12:04:16;0.50;;;0.37;;
15968;SDS011;8085;53.472;9.794;2022-09-03T12:06:57;0.57;;;0.40;;
15968;SDS011;8085;53.472;9.794;2022-09-03T12:13:03;0.90;;;0.57;;
15968;SDS011;8085;53.472;9.794;2022-09-03T12:15:51;0.90;;;0.60;;
15968;SDS011;8085;53.472;9.794;2022-09-03T12:18:41;1.23;;;0.50;;
15968;SDS011;8085;53.472;9.794;2022-09-03T12:21:10;0.60;;;0.50;;
15968;SDS011;8085;53.472;9.794;2022-09-03T12:23:39;0.50;;;0.40;;
15968;SDS011;8085;53.472;9.794;2022-09-03T12:26:10;0.50;;;0.47;;
15968;SDS011;8085;53.472;9.794;2022-09-03T12:28:39;0.67;;;0.50;;
15968;SDS011;8085;53.472;9.794;2022-09-03T12:31:07;0.40;;;0.40;;
15968;SDS011;8085;53.472;9.794;2022-09-03T12:33:44;0.50;;;0.50;;
15968;SDS011;8085;53.472;9.794;2022-09-03T12:36:12;0.87;;;0.40;;
15968;SDS011;8085;53.472;9.794;2022-09-03T12:38:39;0.40;;;0.40;;
15968;SDS011;8085;53.472;9.794;2022-09-03T12:41:19;0.77;;;0.40;;
15968;SDS011;8085;53.472;9.794;2022-09-03T12:43:49;0.37;;;0.30;;
15968;SDS011;8085;53.472;9.794;2022-09-03T12:46:17;0.97;;;0.50;;
15968;SDS011;8085;53.472;9.794;2022-09-03T12:48:51;0.63;;;0.53;;
15968;SDS011;8085;53.472;9.794;2022-09-03T12:51:19;0.47;;;0.40;;
15968;SDS011;8085;53.472;9.794;2022-09-03T12:53:46;0.43;;;0.43;;
15968;SDS011;8085;53.472;9.794;2022-09-03T12:56:16;0.60;;;0.40;;
15968;SDS011;8085;53.472;9.794;2022-09-03T12:58:47;0.40;;;0.40;;
15968;SDS011;8085;53.472;9.794;2022-09-03T13:01:18;0.53;;;0.40;;
15968;SDS011;8085;53.472;9.794;2022-09-03T13:03:48;0.30;;;0.30;;
15968;SDS011;8085;53.472;9.794;2022-09-03T13:06:19;0.43;;;0.43;;
15968;SDS011;8085;53.472;9.794;2022-09-03T13:08:49;0.40;;;0.40;;
15968;SDS011;8085;53.472;9.794;2022-09-03T13:11:20;0.70;;;0.50;;
15968;SDS011;8085;53.472;9.794;2022-09-03T13:13:53;0.40;;;0.40;;
15968;SDS011;8085;53.472;9.794;2022-09-03T13:16:33;0.50;;;0.50;;
15968;SDS011;8085;53.472;9.794;2022-09-03T13:19:15;0.57;;;0.47;;
15968;SDS011;8085;53.472;9.794;2022-09-03T13:21:52;0.53;;;0.50;;
15968;SDS011;8085;53.472;9.794;2022-09-03T13:24:35;0.40;;;0.37;;
15968;SDS011;8085;53.472;9.794;2022-09-03T13:27:16;0.80;;;0.50;;
15968;SDS011;8085;53.472;9.794;2022-09-03T13:29:53;0.50;;;0.43;;
15968;SDS011;8085;53.472;9.794;2022-09-03T13:32:29;0.40;;;0.40;;
15968;SDS011;8085;53.472;9.794;2022-09-03T13:35:05;0.67;;;0.40;;
15968;SDS011;8085;53.472;9.794;2022-09-03T13:37:37;0.40;;;0.40;;
15968;SDS011;8085;53.472;9.794;2022-09-03T13:40:10;0.53;;;0.53;;
15968;SDS011;8085;53.472;9.794;2022-09-03T13:42:44;0.47;;;0.40;;
15968;SDS011;8085;53.472;9.794;2022-09-03T13:45:20;0.50;;;0.50;;
15968;SDS011;8085;53.472;9.794;2022-09-03T13:47:55;0.40;;;0.40;;
15968;SDS011;8085;53.472;9.794;2022-09-03T13:50:58;0.40;;;0.40;;
15968;SDS011;8085;53.472;9.794;2022-09-03T13:53:33;0.37;;;0.37;;
15968;SDS011;8085;53.472;9.794;2022-09-03T13:56:12;0.60;;;0.60;;
15968;SDS011;8085;53.472;9.794;2022-09-03T13:58:47;0.50;;;0.50;;
15968;SDS011;8085;53.472;9.794;2022-09-03T14:01:22;1.10;;;0.50;;
15968;SDS011;8085;53.472;9.794;2022-09-03T14:03:54;0.70;;;0.50;;
15968;SDS011;8085;53.472;9.794;2022-09-03T14:06:28;1.27;;;0.50;;
15968;SDS011;8085;53.472;9.794;2022-09-03T14:09:06;0.60;;;0.50;;
15968;SDS011;8085;53.472;9.794;2022-09-03T14:11:43;0.67;;;0.50;;
15968;SDS011;8085;53.472;9.794;2022-09-03T14:14:20;0.40;;;0.40;;
15968;SDS011;8085;53.472;9.794;2022-09-03T14:17:04;0.70;;;0.50;;
15968;SDS011;8085;53.472;9.794;2022-09-03T14:19:39;0.40;;;0.40;;
15968;SDS011;8085;53.472;9.794;2022-09-03T14:22:12;5.17;;;0.80;;
15968;SDS011;8085;53.472;9.794;2022-09-03T14:24:43;11.50;;;1.00;;
15968;SDS011;8085;53.472;9.794;2022-09-03T14:27:21;1.10;;;0.70;;
15968;SDS011;8085;53.472;9.794;2022-09-03T14:29:52;2.13;;;0.70;;
15968;SDS011;8085;53.472;9.794;2022-09-03T14:32:29;2.80;;;0.70;;
15968;SDS011;8085;53.472;9.794;2022-09-03T14:35:16;0.70;;;0.70;;
15968;SDS011;8085;53.472;9.794;2022-09-03T14:38:07;2.60;;;0.90;;
15968;SDS011;8085;53.472;9.794;2022-09-03T14:40:48;2.07;;;0.80;;
15968;SDS011;8085;53.472;9.794;2022-09-03T14:43:28;3.27;;;0.70;;
15968;SDS011;8085;53.472;9.794;2022-09-03T14:46:16;0.57;;;0.57;;
15968;SDS011;8085;53.472;9.794;2022-09-03T14:48:58;3.43;;;0.70;;
15968;SDS011;8085;53.472;9.794;2022-09-03T14:51:47;1.30;;;0.90;;
15968;SDS011;8085;53.472;9.794;2022-09-03T14:54:36;1.07;;;0.67;;
15968;SDS011;8085;53.472;9.794;2022-09-03T14:57:21;2.60;;;0.90;;
15968;SDS011;8085;53.472;9.794;2022-09-03T15:00:05;1.55;;;0.90;;
15968;SDS011;8085;53.472;9.794;2022-09-03T15:06:03;1.20;;;1.00;;
15968;SDS011;8085;53.472;9.794;2022-09-03T15:08:48;4.78;;;1.52;;
15968;SDS011;8085;53.472;9.794;2022-09-03T15:11:27;3.70;;;1.85;;
15968;SDS011;8085;53.472;9.794;2022-09-03T15:13:59;2.53;;;1.52;;
15968;SDS011;8085;53.472;9.794;2022-09-03T15:16:35;1.90;;;1.80;;
15968;SDS011;8085;53.472;9.794;2022-09-03T15:19:12;2.10;;;1.58;;
15968;SDS011;8085;53.472;9.794;2022-09-03T15:22:04;2.80;;;1.60;;
15968;SDS011;8085;53.472;9.794;2022-09-03T15:24:40;3.30;;;1.63;;
15968;SDS011;8085;53.472;9.794;2022-09-03T15:27:31;1.60;;;1.50;;
15968;SDS011;8085;53.472;9.794;2022-09-03T15:30:09;1.92;;;1.48;;
15968;SDS011;8085;53.472;9.794;2022-09-03T15:32:42;1.60;;;1.50;;
15968;SDS011;8085;53.472;9.794;2022-09-03T15:35:17;1.42;;;1.30;;
15968;SDS011;8085;53.472;9.794;2022-09-03T15:38:11;1.30;;;1.20;;
15968;SDS011;8085;53.472;9.794;2022-09-03T15:40:51;1.50;;;1.30;;
15968;SDS011;8085;53.472;9.794;2022-09-03T15:43:21;1.98;;;1.30;;
15968;SDS011;8085;53.472;9.794;2022-09-03T15:45:51;2.15;;;1.00;;